sensor_id;sensor_type;location;lat;lon;timestamp;P1;durP1;ratioP1;P2;durP2;ratioP2
1400;SDS011;46518;48.842;8.926;2024-02-04T00:01:25;0.60;;;0.50;;
1400;SDS011;46518;48.842;8.926;2024-02-04T00:03:53;0.70;;;0.57;;
1400;SDS011;46518;48.842;8.926;2024-02-04T00:06:23;1.00;;;0.57;;
1400;SDS011;46518;48.842;8.926;2024-02-04T00:08:51;0.63;;;0.40;;
1400;SDS011;46518;48.842;8.926;2024-02-04T00:11:19;0.60;;;0.50;;
1400;SDS011;46518;48.842;8.926;2024-02-04T00:13:50;0.98;;;0.50;;
1400;SDS011;46518;48.842;8.926;2024-02-04T00:16:18;0.50;;;0.50;;
1400;SDS011;46518;48.842;8.926;2024-02-04T00:18:49;0.52;;;0.45;;
1400;SDS011;46518;48.842;8.926;2024-02-04T00:21:17;0.60;;;0.40;;
1400;SDS011;46518;48.842;8.926;2024-02-04T00:23:47;0.60;;;0.50;;
1400;SDS011;46518;48.842;8.926;2024-02-04T00:26:15;0.93;;;0.55;;
1400;SDS011;46518;48.842;8.926;2024-02-04T00:28:43;0.60;;;0.40;;
1400;SDS011;46518;48.842;8.926;2024-02-04T00:31:12;0.60;;;0.40;;
1400;SDS011;46518;48.842;8.926;2024-02-04T00:33:40;0.50;;;0.45;;
1400;SDS011;46518;48.842;8.926;2024-02-04T00:36:11;0.70;;;0.43;;
1400;SDS011;46518;48.842;8.926;2024-02-04T00:38:39;0.60;;;0.50;;
1400;SDS011;46518;48.842;8.926;2024-02-04T00:41:09;1.02;;;0.50;;
1400;SDS011;46518;48.842;8.926;2024-02-04T00:43:37;0.60;;;0.40;;
1400;SDS011;46518;48.842;8.926;2024-02-04T00:46:06;0.70;;;0.50;;
1400;SDS011;46518;48.842;8.926;2024-02-04T00:48:37;0.52;;;0.50;;
1400;SDS011;46518;48.842;8.926;2024-02-04T00:51:05;0.57;;;0.43;;
1400;SDS011;46518;48.842;8.926;2024-02-04T00:53:33;0.60;;;0.40;;
1400;SDS011;46518;48.842;8.926;2024-02-04T00:56:05;0.60;;;0.50;;
1400;SDS011;46518;48.842;8.926;2024-02-04T00:58:35;0.60;;;0.40;;
1400;SDS011;46518;48.842;8.926;2024-02-04T01:01:03;0.60;;;0.52;;
1400;SDS011;46518;48.842;8.926;2024-02-04T01:03:32;0.60;;;0.40;;
1400;SDS011;46518;48.842;8.926;2024-02-04T01:06:00;0.50;;;0.40;;
1400;SDS011;46518;48.842;8.926;2024-02-04T01:08:29;0.60;;;0.40;;
1400;SDS011;46518;48.842;8.926;2024-02-04T01:10:57;0.50;;;0.40;;
1400;SDS011;46518;48.842;8.926;2024-02-04T01:13:25;0.60;;;0.40;;
1400;SDS011;46518;48.842;8.926;2024-02-04T01:15:57;0.50;;;0.40;;
1400;SDS011;46518;48.842;8.926;2024-02-04T01:18:25;0.50;;;0.40;;
1400;SDS011;46518;48.842;8.926;2024-02-04T01:21:06;0.60;;;0.43;;
1400;SDS011;46518;48.842;8.926;2024-02-04T01:23:35;0.60;;;0.40;;
1400;SDS011;46518;48.842;8.926;2024-02-04T01:26:03;0.50;;;0.40;;
1400;SDS011;46518;48.842;8.926;2024-02-04T01:28:36;0.50;;;0.40;;
1400;SDS011;46518;48.842;8.926;2024-02-04T01:31:09;0.70;;;0.50;;
1400;SDS011;46518;48.842;8.926;2024-02-04T01:33:40;0.50;;;0.40;;
1400;SDS011;46518;48.842;8.926;2024-02-04T01:36:15;0.50;;;0.45;;
1400;SDS011;46518;48.842;8.926;2024-02-04T01:38:45;0.60;;;0.45;;
1400;SDS011;46518;48.842;8.926;2024-02-04T01:41:20;0.50;;;0.40;;
1400;SDS011;46518;48.842;8.926;2024-02-04T01:43:48;0.50;;;0.40;;
1400;SDS011;46518;48.842;8.926;2024-02-04T01:46:20;0.50;;;0.40;;
1400;SDS011;46518;48.842;8.926;2024-02-04T01:48:49;0.73;;;0.60;;
1400;SDS011;46518;48.842;8.926;2024-02-04T01:51:20;0.70;;;0.40;;
1400;SDS011;46518;48.842;8.926;2024-02-04T01:53:49;0.60;;;0.40;;
1400;SDS011;46518;48.842;8.926;2024-02-04T01:56:17;0.50;;;0.40;;
1400;SDS011;46518;48.842;8.926;2024-02-04T01:58:51;0.50;;;0.43;;
1400;SDS011;46518;48.842;8.926;2024-02-04T02:01:26;0.50;;;0.40;;
1400;SDS011;46518;48.842;8.926;2024-02-04T02:03:56;0.50;;;0.40;;
1400;SDS011;46518;48.842;8.926;2024-02-04T02:06:27;0.50;;;0.40;;
1400;SDS011;46518;48.842;8.926;2024-02-04T02:08:56;0.70;;;0.50;;
1400;SDS011;46518;48.842;8.926;2024-02-04T02:11:32;0.50;;;0.40;;
1400;SDS011;46518;48.842;8.926;2024-02-04T02:14:09;0.60;;;0.40;;
1400;SDS011;46518;48.842;8.926;2024-02-04T02:16:42;0.60;;;0.40;;
1400;SDS011;46518;48.842;8.926;2024-02-04T02:19:16;0.50;;;0.40;;
1400;SDS011;46518;48.842;8.926;2024-02-04T02:22:01;0.50;;;0.40;;
1400;SDS011;46518;48.842;8.926;2024-02-04T02:24:35;0.57;;;0.40;;
1400;SDS011;46518;48.842;8.926;2024-02-04T02:27:07;0.50;;;0.40;;
1400;SDS011;46518;48.842;8.926;2024-02-04T02:29:36;0.70;;;0.40;;
1400;SDS011;46518;48.842;8.926;2024-02-04T02:32:04;0.68;;;0.40;;
1400;SDS011;46518;48.842;8.926;2024-02-04T02:34:34;0.50;;;0.30;;
1400;SDS011;46518;48.842;8.926;2024-02-04T02:37:08;0.50;;;0.40;;
1400;SDS011;46518;48.842;8.926;2024-02-04T02:39:48;0.50;;;0.40;;
1400;SDS011;46518;48.842;8.926;2024-02-04T02:42:20;0.65;;;0.38;;
1400;SDS011;46518;48.842;8.926;2024-02-04T02:44:51;0.52;;;0.45;;
1400;SDS011;46518;48.842;8.926;2024-02-04T02:47:22;0.70;;;0.40;;
1400;SDS011;46518;48.842;8.926;2024-02-04T02:49:51;0.50;;;0.40;;
1400;SDS011;46518;48.842;8.926;2024-02-04T02:52:21;0.50;;;0.40;;
1400;SDS011;46518;48.842;8.926;2024-02-04T02:54:53;0.50;;;0.40;;
1400;SDS011;46518;48.842;8.926;2024-02-04T02:57:22;0.50;;;0.40;;
1400;SDS011;46518;48.842;8.926;2024-02-04T02:59:50;0.60;;;0.40;;
1400;SDS011;46518;48.842;8.926;2024-02-04T03:02:18;0.50;;;0.30;;
1400;SDS011;46518;48.842;8.926;2024-02-04T03:04:46;0.50;;;0.40;;
1400;SDS011;46518;48.842;8.926;2024-02-04T03:07:14;0.50;;;0.40;;
1400;SDS011;46518;48.842;8.926;2024-02-04T03:09:42;0.50;;;0.40;;
1400;SDS011;46518;48.842;8.926;2024-02-04T03:12:12;0.50;;;0.40;;
1400;SDS011;46518;48.842;8.926;2024-02-04T03:14:41;0.60;;;0.50;;
1400;SDS011;46518;48.842;8.926;2024-02-04T03:17:09;0.50;;;0.40;;
1400;SDS011;46518;48.842;8.926;2024-02-04T03:19:38;0.50;;;0.40;;
1400;SDS011;46518;48.842;8.926;2024-02-04T03:22:06;0.65;;;0.47;;
1400;SDS011;46518;48.842;8.926;2024-02-04T03:24:35;0.50;;;0.40;;
1400;SDS011;46518;48.842;8.926;2024-02-04T03:27:03;0.50;;;0.40;;
1400;SDS011;46518;48.842;8.926;2024-02-04T03:29:33;0.50;;;0.40;;
1400;SDS011;46518;48.842;8.926;2024-02-04T03:32:01;0.50;;;0.40;;
1400;SDS011;46518;48.842;8.926;2024-02-04T03:34:29;0.80;;;0.40;;
1400;SDS011;46518;48.842;8.926;2024-02-04T03:37:00;0.60;;;0.40;;
1400;SDS011;46518;48.842;8.926;2024-02-04T03:39:29;0.50;;;0.40;;
1400;SDS011;46518;48.842;8.926;2024-02-04T03:41:57;1.30;;;0.55;;
1400;SDS011;46518;48.842;8.926;2024-02-04T03:44:25;0.70;;;0.40;;
1400;SDS011;46518;48.842;8.926;2024-02-04T03:46:55;0.50;;;0.40;;
1400;SDS011;46518;48.842;8.926;2024-02-04T03:49:25;0.50;;;0.40;;
1400;SDS011;46518;48.842;8.926;2024-02-04T03:51:54;0.55;;;0.40;;
1400;SDS011;46518;48.842;8.926;2024-02-04T03:54:22;0.50;;;0.40;;
1400;SDS011;46518;48.842;8.926;2024-02-04T03:56:50;0.50;;;0.40;;
1400;SDS011;46518;48.842;8.926;2024-02-04T03:59:19;0.50;;;0.40;;
1400;SDS011;46518;48.842;8.926;2024-02-04T04:01:47;0.60;;;0.40;;
1400;SDS011;46518;48.842;8.926;2024-02-04T04:04:17;0.50;;;0.40;;
1400;SDS011;46518;48.842;8.926;2024-02-04T04:06:46;0.70;;;0.70;;
1400;SDS011;46518;48.842;8.926;2024-02-04T04:09:15;0.50;;;0.50;;
1400;SDS011;46518;48.842;8.926;2024-02-04T04:11:43;0.50;;;0.30;;
1400;SDS011;46518;48.842;8.926;2024-02-04T04:14:11;0.52;;;0.40;;
1400;SDS011;46518;48.842;8.926;2024-02-04T04:16:39;0.50;;;0.40;;
1400;SDS011;46518;48.842;8.926;2024-02-04T04:19:07;0.90;;;0.70;;
1400;SDS011;46518;48.842;8.926;2024-02-04T04:21:38;0.50;;;0.40;;
1400;SDS011;46518;48.842;8.926;2024-02-04T04:24:07;0.50;;;0.40;;
1400;SDS011;46518;48.842;8.926;2024-02-04T04:26:35;0.60;;;0.43;;
1400;SDS011;46518;48.842;8.926;2024-02-04T04:29:03;0.50;;;0.30;;
1400;SDS011;46518;48.842;8.926;2024-02-04T04:31:31;0.50;;;0.40;;
1400;SDS011;46518;48.842;8.926;2024-02-04T04:34:03;0.50;;;0.40;;
1400;SDS011;46518;48.842;8.926;2024-02-04T04:36:31;0.50;;;0.40;;
1400;SDS011;46518;48.842;8.926;2024-02-04T04:39:00;0.60;;;0.40;;
1400;SDS011;46518;48.842;8.926;2024-02-04T04:41:29;0.50;;;0.40;;
1400;SDS011;46518;48.842;8.926;2024-02-04T04:43:57;0.50;;;0.40;;
1400;SDS011;46518;48.842;8.926;2024-02-04T04:46:24;0.50;;;0.40;;
1400;SDS011;46518;48.842;8.926;2024-02-04T04:48:52;0.50;;;0.38;;
1400;SDS011;46518;48.842;8.926;2024-02-04T04:51:25;0.50;;;0.40;;
1400;SDS011;46518;48.842;8.926;2024-02-04T04:53:54;0.50;;;0.40;;
1400;SDS011;46518;48.842;8.926;2024-02-04T04:56:23;0.60;;;0.40;;
1400;SDS011;46518;48.842;8.926;2024-02-04T04:58:51;0.50;;;0.40;;
1400;SDS011;46518;48.842;8.926;2024-02-04T05:01:20;0.50;;;0.40;;
1400;SDS011;46518;48.842;8.926;2024-02-04T05:03:48;0.50;;;0.40;;
1400;SDS011;46518;48.842;8.926;2024-02-04T05:06:19;0.70;;;0.40;;
1400;SDS011;46518;48.842;8.926;2024-02-04T05:08:47;0.60;;;0.40;;
1400;SDS011;46518;48.842;8.926;2024-02-04T05:11:15;0.60;;;0.40;;
1400;SDS011;46518;48.842;8.926;2024-02-04T05:13:45;0.70;;;0.40;;
1400;SDS011;46518;48.842;8.926;2024-02-04T05:16:13;0.60;;;0.50;;
1400;SDS011;46518;48.842;8.926;2024-02-04T05:18:41;0.60;;;0.40;;
1400;SDS011;46518;48.842;8.926;2024-02-04T05:21:10;0.60;;;0.40;;
1400;SDS011;46518;48.842;8.926;2024-02-04T05:23:38;0.50;;;0.40;;
1400;SDS011;46518;48.842;8.926;2024-02-04T05:26:11;0.73;;;0.50;;
1400;SDS011;46518;48.842;8.926;2024-02-04T05:28:39;0.60;;;0.40;;
1400;SDS011;46518;48.842;8.926;2024-02-04T05:31:08;0.50;;;0.40;;
1400;SDS011;46518;48.842;8.926;2024-02-04T05:33:37;0.50;;;0.40;;
1400;SDS011;46518;48.842;8.926;2024-02-04T05:36:05;0.50;;;0.40;;
1400;SDS011;46518;48.842;8.926;2024-02-04T05:38:33;0.73;;;0.43;;
1400;SDS011;46518;48.842;8.926;2024-02-04T05:41:01;0.50;;;0.40;;
1400;SDS011;46518;48.842;8.926;2024-02-04T05:43:30;0.60;;;0.40;;
1400;SDS011;46518;48.842;8.926;2024-02-04T05:45:58;1.10;;;0.40;;
1400;SDS011;46518;48.842;8.926;2024-02-04T05:48:27;0.60;;;0.50;;
1400;SDS011;46518;48.842;8.926;2024-02-04T05:50:56;0.60;;;0.40;;
1400;SDS011;46518;48.842;8.926;2024-02-04T05:53:24;0.50;;;0.40;;
1400;SDS011;46518;48.842;8.926;2024-02-04T05:55:52;0.60;;;0.40;;
1400;SDS011;46518;48.842;8.926;2024-02-04T05:58:20;0.50;;;0.40;;
1400;SDS011;46518;48.842;8.926;2024-02-04T06:00:48;0.50;;;0.40;;
1400;SDS011;46518;48.842;8.926;2024-02-04T06:03:16;0.50;;;0.47;;
1400;SDS011;46518;48.842;8.926;2024-02-04T06:05:46;0.50;;;0.40;;
1400;SDS011;46518;48.842;8.926;2024-02-04T06:08:14;0.50;;;0.40;;
1400;SDS011;46518;48.842;8.926;2024-02-04T06:10:42;0.50;;;0.40;;
1400;SDS011;46518;48.842;8.926;2024-02-04T06:13:10;0.60;;;0.40;;
1400;SDS011;46518;48.842;8.926;2024-02-04T06:15:39;0.60;;;0.40;;
1400;SDS011;46518;48.842;8.926;2024-02-04T06:18:07;0.50;;;0.40;;
1400;SDS011;46518;48.842;8.926;2024-02-04T06:20:35;0.90;;;0.40;;
1400;SDS011;46518;48.842;8.926;2024-02-04T06:23:05;0.60;;;0.50;;
1400;SDS011;46518;48.842;8.926;2024-02-04T06:25:34;0.60;;;0.50;;
1400;SDS011;46518;48.842;8.926;2024-02-04T06:28:02;0.50;;;0.40;;
1400;SDS011;46518;48.842;8.926;2024-02-04T06:30:30;0.50;;;0.40;;
1400;SDS011;46518;48.842;8.926;2024-02-04T06:32:59;0.75;;;0.40;;
1400;SDS011;46518;48.842;8.926;2024-02-04T06:35:27;0.50;;;0.40;;
1400;SDS011;46518;48.842;8.926;2024-02-04T06:37:55;0.60;;;0.40;;
1400;SDS011;46518;48.842;8.926;2024-02-04T06:40:35;0.50;;;0.40;;
1400;SDS011;46518;48.842;8.926;2024-02-04T06:43:05;0.60;;;0.60;;
1400;SDS011;46518;48.842;8.926;2024-02-04T06:45:34;0.60;;;0.40;;
1400;SDS011;46518;48.842;8.926;2024-02-04T06:48:04;0.70;;;0.45;;
1400;SDS011;46518;48.842;8.926;2024-02-04T06:50:34;0.60;;;0.40;;
1400;SDS011;46518;48.842;8.926;2024-02-04T06:53:06;0.50;;;0.40;;
1400;SDS011;46518;48.842;8.926;2024-02-04T06:55:38;0.50;;;0.40;;
1400;SDS011;46518;48.842;8.926;2024-02-04T06:58:07;0.60;;;0.40;;
1400;SDS011;46518;48.842;8.926;2024-02-04T07:00:47;3.85;;;0.60;;
1400;SDS011;46518;48.842;8.926;2024-02-04T07:03:18;0.50;;;0.40;;
1400;SDS011;46518;48.842;8.926;2024-02-04T07:05:46;0.50;;;0.40;;
1400;SDS011;46518;48.842;8.926;2024-02-04T07:08:24;0.50;;;0.40;;
1400;SDS011;46518;48.842;8.926;2024-02-04T07:10:54;0.90;;;0.50;;
1400;SDS011;46518;48.842;8.926;2024-02-04T07:13:36;0.60;;;0.40;;
1400;SDS011;46518;48.842;8.926;2024-02-04T07:16:44;1.00;;;0.40;;
1400;SDS011;46518;48.842;8.926;2024-02-04T07:19:34;0.60;;;0.40;;
1400;SDS011;46518;48.842;8.926;2024-02-04T07:22:28;3.28;;;0.50;;
1400;SDS011;46518;48.842;8.926;2024-02-04T07:25:08;0.50;;;0.50;;
1400;SDS011;46518;48.842;8.926;2024-02-04T07:27:39;0.60;;;0.47;;
1400;SDS011;46518;48.842;8.926;2024-02-04T07:30:11;0.50;;;0.40;;
1400;SDS011;46518;48.842;8.926;2024-02-04T07:32:43;0.80;;;0.50;;
1400;SDS011;46518;48.842;8.926;2024-02-04T07:35:14;0.50;;;0.40;;
1400;SDS011;46518;48.842;8.926;2024-02-04T07:37:46;0.60;;;0.40;;
1400;SDS011;46518;48.842;8.926;2024-02-04T07:40:18;0.65;;;0.40;;
1400;SDS011;46518;48.842;8.926;2024-02-04T07:42:48;0.50;;;0.40;;
1400;SDS011;46518;48.842;8.926;2024-02-04T07:45:17;0.55;;;0.40;;
1400;SDS011;46518;48.842;8.926;2024-02-04T07:47:46;0.70;;;0.50;;
1400;SDS011;46518;48.842;8.926;2024-02-04T07:50:16;1.00;;;0.63;;
1400;SDS011;46518;48.842;8.926;2024-02-04T07:52:45;0.57;;;0.50;;
1400;SDS011;46518;48.842;8.926;2024-02-04T07:55:15;0.60;;;0.45;;
1400;SDS011;46518;48.842;8.926;2024-02-04T07:57:43;0.50;;;0.40;;
1400;SDS011;46518;48.842;8.926;2024-02-04T08:00:13;0.70;;;0.50;;
1400;SDS011;46518;48.842;8.926;2024-02-04T08:02:43;0.50;;;0.40;;
1400;SDS011;46518;48.842;8.926;2024-02-04T08:05:14;0.50;;;0.45;;
1400;SDS011;46518;48.842;8.926;2024-02-04T08:07:43;1.45;;;0.60;;
1400;SDS011;46518;48.842;8.926;2024-02-04T08:10:13;0.50;;;0.40;;
1400;SDS011;46518;48.842;8.926;2024-02-04T08:12:43;0.50;;;0.40;;
1400;SDS011;46518;48.842;8.926;2024-02-04T08:15:19;0.60;;;0.40;;
1400;SDS011;46518;48.842;8.926;2024-02-04T08:17:48;0.60;;;0.50;;
1400;SDS011;46518;48.842;8.926;2024-02-04T08:20:17;0.50;;;0.40;;
1400;SDS011;46518;48.842;8.926;2024-02-04T08:22:46;0.50;;;0.40;;
1400;SDS011;46518;48.842;8.926;2024-02-04T08:25:16;1.50;;;0.52;;
1400;SDS011;46518;48.842;8.926;2024-02-04T08:27:46;0.50;;;0.40;;
1400;SDS011;46518;48.842;8.926;2024-02-04T08:30:17;0.60;;;0.40;;
1400;SDS011;46518;48.842;8.926;2024-02-04T08:32:48;0.60;;;0.45;;
1400;SDS011;46518;48.842;8.926;2024-02-04T08:35:17;0.60;;;0.50;;
1400;SDS011;46518;48.842;8.926;2024-02-04T08:37:46;0.70;;;0.50;;
1400;SDS011;46518;48.842;8.926;2024-02-04T08:40:15;1.40;;;0.40;;
1400;SDS011;46518;48.842;8.926;2024-02-04T08:42:45;0.70;;;0.40;;
1400;SDS011;46518;48.842;8.926;2024-02-04T08:45:14;0.60;;;0.40;;
1400;SDS011;46518;48.842;8.926;2024-02-04T08:47:43;0.60;;;0.40;;
1400;SDS011;46518;48.842;8.926;2024-02-04T08:50:14;0.70;;;0.50;;
1400;SDS011;46518;48.842;8.926;2024-02-04T08:52:44;0.80;;;0.50;;
1400;SDS011;46518;48.842;8.926;2024-02-04T08:55:13;0.57;;;0.47;;
1400;SDS011;46518;48.842;8.926;2024-02-04T08:57:42;0.68;;;0.50;;
1400;SDS011;46518;48.842;8.926;2024-02-04T09:00:12;0.50;;;0.40;;
1400;SDS011;46518;48.842;8.926;2024-02-04T09:02:41;0.60;;;0.50;;
1400;SDS011;46518;48.842;8.926;2024-02-04T09:05:10;0.70;;;0.40;;
1400;SDS011;46518;48.842;8.926;2024-02-04T09:07:41;0.63;;;0.45;;
1400;SDS011;46518;48.842;8.926;2024-02-04T09:10:11;0.50;;;0.40;;
1400;SDS011;46518;48.842;8.926;2024-02-04T09:12:41;0.68;;;0.50;;
1400;SDS011;46518;48.842;8.926;2024-02-04T09:15:22;0.70;;;0.50;;
1400;SDS011;46518;48.842;8.926;2024-02-04T09:17:52;1.35;;;0.40;;
1400;SDS011;46518;48.842;8.926;2024-02-04T09:20:21;0.50;;;0.40;;
1400;SDS011;46518;48.842;8.926;2024-02-04T09:22:52;0.75;;;0.40;;
1400;SDS011;46518;48.842;8.926;2024-02-04T09:25:20;0.60;;;0.40;;
1400;SDS011;46518;48.842;8.926;2024-02-04T09:27:50;0.50;;;0.40;;
1400;SDS011;46518;48.842;8.926;2024-02-04T09:30:21;0.60;;;0.40;;
1400;SDS011;46518;48.842;8.926;2024-02-04T09:32:50;0.73;;;0.60;;
1400;SDS011;46518;48.842;8.926;2024-02-04T09:35:20;0.50;;;0.40;;
1400;SDS011;46518;48.842;8.926;2024-02-04T09:38:00;0.50;;;0.40;;
1400;SDS011;46518;48.842;8.926;2024-02-04T09:40:30;0.60;;;0.50;;
1400;SDS011;46518;48.842;8.926;2024-02-04T09:43:01;0.60;;;0.40;;
1400;SDS011;46518;48.842;8.926;2024-02-04T09:45:32;0.60;;;0.43;;
1400;SDS011;46518;48.842;8.926;2024-02-04T09:48:03;0.50;;;0.40;;
1400;SDS011;46518;48.842;8.926;2024-02-04T09:50:34;0.50;;;0.40;;
1400;SDS011;46518;48.842;8.926;2024-02-04T09:53:07;0.50;;;0.40;;
1400;SDS011;46518;48.842;8.926;2024-02-04T09:55:38;0.60;;;0.60;;
1400;SDS011;46518;48.842;8.926;2024-02-04T09:58:09;0.50;;;0.40;;
1400;SDS011;46518;48.842;8.926;2024-02-04T10:00:40;1.30;;;0.40;;
1400;SDS011;46518;48.842;8.926;2024-02-04T10:03:12;0.52;;;0.40;;
1400;SDS011;46518;48.842;8.926;2024-02-04T10:05:40;0.60;;;0.40;;
1400;SDS011;46518;48.842;8.926;2024-02-04T10:08:11;0.70;;;0.50;;
1400;SDS011;46518;48.842;8.926;2024-02-04T10:10:44;0.50;;;0.40;;
1400;SDS011;46518;48.842;8.926;2024-02-04T10:13:12;0.50;;;0.40;;
1400;SDS011;46518;48.842;8.926;2024-02-04T10:15:41;0.60;;;0.50;;
1400;SDS011;46518;48.842;8.926;2024-02-04T10:18:13;0.50;;;0.40;;
1400;SDS011;46518;48.842;8.926;2024-02-04T10:20:42;0.60;;;0.50;;
1400;SDS011;46518;48.842;8.926;2024-02-04T10:23:17;0.60;;;0.40;;
1400;SDS011;46518;48.842;8.926;2024-02-04T10:25:56;0.70;;;0.50;;
1400;SDS011;46518;48.842;8.926;2024-02-04T10:28:29;0.70;;;0.50;;
1400;SDS011;46518;48.842;8.926;2024-02-04T10:30:59;0.50;;;0.40;;
1400;SDS011;46518;48.842;8.926;2024-02-04T10:33:29;0.85;;;0.40;;
1400;SDS011;46518;48.842;8.926;2024-02-04T10:35:59;0.50;;;0.40;;
1400;SDS011;46518;48.842;8.926;2024-02-04T10:38:32;0.57;;;0.40;;
1400;SDS011;46518;48.842;8.926;2024-02-04T10:41:10;0.50;;;0.40;;
1400;SDS011;46518;48.842;8.926;2024-02-04T10:43:45;0.75;;;0.40;;
1400;SDS011;46518;48.842;8.926;2024-02-04T10:46:19;0.60;;;0.50;;
1400;SDS011;46518;48.842;8.926;2024-02-04T10:48:51;0.50;;;0.40;;
1400;SDS011;46518;48.842;8.926;2024-02-04T10:51:27;0.60;;;0.40;;
1400;SDS011;46518;48.842;8.926;2024-02-04T10:54:01;0.50;;;0.40;;
1400;SDS011;46518;48.842;8.926;2024-02-04T10:56:35;0.60;;;0.40;;
1400;SDS011;46518;48.842;8.926;2024-02-04T10:59:10;0.50;;;0.40;;
1400;SDS011;46518;48.842;8.926;2024-02-04T11:01:42;0.57;;;0.40;;
1400;SDS011;46518;48.842;8.926;2024-02-04T11:04:12;0.60;;;0.50;;
1400;SDS011;46518;48.842;8.926;2024-02-04T11:06:43;0.50;;;0.40;;
1400;SDS011;46518;48.842;8.926;2024-02-04T11:09:14;0.60;;;0.50;;
1400;SDS011;46518;48.842;8.926;2024-02-04T11:11:48;0.85;;;0.47;;
1400;SDS011;46518;48.842;8.926;2024-02-04T11:14:21;0.60;;;0.40;;
1400;SDS011;46518;48.842;8.926;2024-02-04T11:17:18;0.63;;;0.40;;
1400;SDS011;46518;48.842;8.926;2024-02-04T11:20:03;0.60;;;0.50;;
1400;SDS011;46518;48.842;8.926;2024-02-04T11:23:08;0.50;;;0.40;;
1400;SDS011;46518;48.842;8.926;2024-02-04T11:25:56;0.73;;;0.40;;
1400;SDS011;46518;48.842;8.926;2024-02-04T11:28:27;0.63;;;0.50;;
1400;SDS011;46518;48.842;8.926;2024-02-04T11:30:57;0.50;;;0.40;;
1400;SDS011;46518;48.842;8.926;2024-02-04T11:33:30;0.60;;;0.45;;
1400;SDS011;46518;48.842;8.926;2024-02-04T11:36:03;0.80;;;0.50;;
1400;SDS011;46518;48.842;8.926;2024-02-04T11:38:35;0.60;;;0.50;;
1400;SDS011;46518;48.842;8.926;2024-02-04T11:41:09;0.95;;;0.50;;
1400;SDS011;46518;48.842;8.926;2024-02-04T11:43:38;0.50;;;0.47;;
1400;SDS011;46518;48.842;8.926;2024-02-04T11:46:15;0.60;;;0.40;;
1400;SDS011;46518;48.842;8.926;2024-02-04T11:48:51;0.60;;;0.50;;
1400;SDS011;46518;48.842;8.926;2024-02-04T11:51:25;0.60;;;0.40;;
1400;SDS011;46518;48.842;8.926;2024-02-04T11:53:55;0.70;;;0.50;;
1400;SDS011;46518;48.842;8.926;2024-02-04T11:56:28;0.60;;;0.52;;
1400;SDS011;46518;48.842;8.926;2024-02-04T11:59:00;0.57;;;0.43;;
1400;SDS011;46518;48.842;8.926;2024-02-04T12:01:33;0.82;;;0.60;;
1400;SDS011;46518;48.842;8.926;2024-02-04T12:04:10;0.80;;;0.60;;
1400;SDS011;46518;48.842;8.926;2024-02-04T12:06:41;1.00;;;0.60;;
1400;SDS011;46518;48.842;8.926;2024-02-04T12:09:12;1.08;;;0.60;;
1400;SDS011;46518;48.842;8.926;2024-02-04T12:11:47;1.60;;;0.50;;
1400;SDS011;46518;48.842;8.926;2024-02-04T12:14:16;0.60;;;0.40;;
1400;SDS011;46518;48.842;8.926;2024-02-04T12:16:47;0.60;;;0.50;;
1400;SDS011;46518;48.842;8.926;2024-02-04T12:19:17;0.60;;;0.43;;
1400;SDS011;46518;48.842;8.926;2024-02-04T12:21:46;0.80;;;0.57;;
1400;SDS011;46518;48.842;8.926;2024-02-04T12:24:16;0.60;;;0.50;;
1400;SDS011;46518;48.842;8.926;2024-02-04T12:26:46;0.60;;;0.50;;
1400;SDS011;46518;48.842;8.926;2024-02-04T12:29:16;0.50;;;0.50;;
1400;SDS011;46518;48.842;8.926;2024-02-04T12:31:45;0.63;;;0.50;;
1400;SDS011;46518;48.842;8.926;2024-02-04T12:34:16;0.50;;;0.40;;
1400;SDS011;46518;48.842;8.926;2024-02-04T12:36:47;0.60;;;0.52;;
1400;SDS011;46518;48.842;8.926;2024-02-04T12:39:26;0.60;;;0.50;;
1400;SDS011;46518;48.842;8.926;2024-02-04T12:42:00;0.50;;;0.45;;
1400;SDS011;46518;48.842;8.926;2024-02-04T12:44:30;0.88;;;0.50;;
1400;SDS011;46518;48.842;8.926;2024-02-04T12:46:59;0.73;;;0.50;;
1400;SDS011;46518;48.842;8.926;2024-02-04T12:49:29;0.60;;;0.50;;
1400;SDS011;46518;48.842;8.926;2024-02-04T12:52:04;0.60;;;0.50;;
1400;SDS011;46518;48.842;8.926;2024-02-04T12:54:44;0.50;;;0.47;;
1400;SDS011;46518;48.842;8.926;2024-02-04T12:57:28;0.57;;;0.52;;
1400;SDS011;46518;48.842;8.926;2024-02-04T13:00:04;1.00;;;0.55;;
1400;SDS011;46518;48.842;8.926;2024-02-04T13:02:36;0.60;;;0.50;;
1400;SDS011;46518;48.842;8.926;2024-02-04T13:05:07;0.70;;;0.60;;
1400;SDS011;46518;48.842;8.926;2024-02-04T13:07:37;0.60;;;0.40;;
1400;SDS011;46518;48.842;8.926;2024-02-04T13:10:06;0.88;;;0.50;;
1400;SDS011;46518;48.842;8.926;2024-02-04T13:12:37;0.70;;;0.50;;
1400;SDS011;46518;48.842;8.926;2024-02-04T13:15:06;0.98;;;0.50;;
1400;SDS011;46518;48.842;8.926;2024-02-04T13:17:36;0.50;;;0.50;;
1400;SDS011;46518;48.842;8.926;2024-02-04T13:20:06;0.60;;;0.60;;
1400;SDS011;46518;48.842;8.926;2024-02-04T13:22:37;1.27;;;1.08;;
1400;SDS011;46518;48.842;8.926;2024-02-04T13:25:08;0.95;;;0.75;;
1400;SDS011;46518;48.842;8.926;2024-02-04T13:27:39;0.60;;;0.50;;
1400;SDS011;46518;48.842;8.926;2024-02-04T13:30:09;0.82;;;0.60;;
1400;SDS011;46518;48.842;8.926;2024-02-04T13:32:39;0.75;;;0.68;;
1400;SDS011;46518;48.842;8.926;2024-02-04T13:35:09;0.60;;;0.60;;
1400;SDS011;46518;48.842;8.926;2024-02-04T13:37:53;0.60;;;0.60;;
1400;SDS011;46518;48.842;8.926;2024-02-04T13:40:24;0.70;;;0.50;;
1400;SDS011;46518;48.842;8.926;2024-02-04T13:42:55;0.60;;;0.60;;
1400;SDS011;46518;48.842;8.926;2024-02-04T13:45:27;0.90;;;0.60;;
1400;SDS011;46518;48.842;8.926;2024-02-04T13:47:57;0.60;;;0.60;;
1400;SDS011;46518;48.842;8.926;2024-02-04T13:50:28;0.60;;;0.50;;
1400;SDS011;46518;48.842;8.926;2024-02-04T13:53:00;0.60;;;0.50;;
1400;SDS011;46518;48.842;8.926;2024-02-04T13:55:31;0.80;;;0.80;;
1400;SDS011;46518;48.842;8.926;2024-02-04T13:58:02;1.50;;;0.90;;
1400;SDS011;46518;48.842;8.926;2024-02-04T14:00:31;2.78;;;0.70;;
1400;SDS011;46518;48.842;8.926;2024-02-04T14:03:01;0.60;;;0.50;;
1400;SDS011;46518;48.842;8.926;2024-02-04T14:05:30;0.70;;;0.60;;
1400;SDS011;46518;48.842;8.926;2024-02-04T14:07:59;0.70;;;0.50;;
1400;SDS011;46518;48.842;8.926;2024-02-04T14:10:28;0.63;;;0.50;;
1400;SDS011;46518;48.842;8.926;2024-02-04T14:12:59;0.75;;;0.57;;
1400;SDS011;46518;48.842;8.926;2024-02-04T14:15:35;0.85;;;0.60;;
1400;SDS011;46518;48.842;8.926;2024-02-04T14:18:13;0.80;;;0.60;;
1400;SDS011;46518;48.842;8.926;2024-02-04T14:20:45;0.68;;;0.57;;
1400;SDS011;46518;48.842;8.926;2024-02-04T14:23:15;0.90;;;0.70;;
1400;SDS011;46518;48.842;8.926;2024-02-04T14:25:43;0.60;;;0.60;;
1400;SDS011;46518;48.842;8.926;2024-02-04T14:28:13;1.10;;;0.82;;
1400;SDS011;46518;48.842;8.926;2024-02-04T14:30:47;1.60;;;0.82;;
1400;SDS011;46518;48.842;8.926;2024-02-04T14:33:17;1.20;;;0.70;;
1400;SDS011;46518;48.842;8.926;2024-02-04T14:35:47;1.10;;;0.70;;
1400;SDS011;46518;48.842;8.926;2024-02-04T14:38:17;0.80;;;0.73;;
1400;SDS011;46518;48.842;8.926;2024-02-04T14:40:47;1.35;;;0.60;;
1400;SDS011;46518;48.842;8.926;2024-02-04T14:43:18;0.80;;;0.70;;
1400;SDS011;46518;48.842;8.926;2024-02-04T14:45:52;0.93;;;0.75;;
1400;SDS011;46518;48.842;8.926;2024-02-04T14:48:22;1.17;;;0.75;;
1400;SDS011;46518;48.842;8.926;2024-02-04T14:50:51;0.60;;;0.60;;
1400;SDS011;46518;48.842;8.926;2024-02-04T14:53:20;0.70;;;0.70;;
1400;SDS011;46518;48.842;8.926;2024-02-04T14:55:49;1.70;;;1.10;;
1400;SDS011;46518;48.842;8.926;2024-02-04T14:58:18;0.60;;;0.60;;
1400;SDS011;46518;48.842;8.926;2024-02-04T15:00:48;0.75;;;0.70;;
1400;SDS011;46518;48.842;8.926;2024-02-04T15:03:19;0.70;;;0.70;;
1400;SDS011;46518;48.842;8.926;2024-02-04T15:05:50;0.90;;;0.70;;
1400;SDS011;46518;48.842;8.926;2024-02-04T15:08:21;0.90;;;0.77;;
1400;SDS011;46518;48.842;8.926;2024-02-04T15:10:51;0.90;;;0.70;;
1400;SDS011;46518;48.842;8.926;2024-02-04T15:13:26;0.80;;;0.80;;
1400;SDS011;46518;48.842;8.926;2024-02-04T15:16:01;0.70;;;0.70;;
1400;SDS011;46518;48.842;8.926;2024-02-04T15:18:33;0.70;;;0.60;;
1400;SDS011;46518;48.842;8.926;2024-02-04T15:21:03;0.65;;;0.65;;
1400;SDS011;46518;48.842;8.926;2024-02-04T15:23:33;0.80;;;0.75;;